createdAt,value
2019-06-07T00:01:46.063Z,8.00
2019-06-07T00:04:16.099Z,7.93
2019-06-07T00:06:46.744Z,8.13
2019-06-07T00:09:18.550Z,7.57
2019-06-07T00:11:47.541Z,8.03
2019-06-07T00:14:16.669Z,7.67
2019-06-07T00:16:47.912Z,7.37
2019-06-07T00:19:18.628Z,7.30
2019-06-07T00:22:15.602Z,7.60
2019-06-07T00:24:19.409Z,7.20
2019-06-07T00:26:58.500Z,8.23
2019-06-07T00:29:22.019Z,7.13
2019-06-07T00:31:51.232Z,7.37
2019-06-07T00:34:22.554Z,7.43
2019-06-07T00:36:50.268Z,6.93
2019-06-07T00:39:24.986Z,7.30
2019-06-07T00:41:49.431Z,7.00
2019-06-07T00:44:21.487Z,6.80
2019-06-07T00:46:48.347Z,6.03
2019-06-07T00:49:32.066Z,6.10
2019-06-07T00:51:50.296Z,6.80
2019-06-07T00:54:19.862Z,6.93
2019-06-07T00:56:48.017Z,7.27
2019-06-07T00:59:21.155Z,7.93
2019-06-07T01:01:47.310Z,7.53
2019-06-07T01:04:19.465Z,7.70
2019-06-07T01:06:46.577Z,7.87
2019-06-07T01:09:15.320Z,7.63
2019-06-07T01:11:44.278Z,7.93
2019-06-07T01:14:14.596Z,7.70
2019-06-07T01:16:56.444Z,7.43
2019-06-07T01:19:16.469Z,7.17
2019-06-07T01:21:48.553Z,7.03
2019-06-07T01:24:17.662Z,6.50
2019-06-07T01:26:46.407Z,7.17
2019-06-07T01:29:17.845Z,7.33
2019-06-07T01:31:45.265Z,7.60
2019-06-07T01:34:18.526Z,7.97
2019-06-07T01:36:47.386Z,7.33
2019-06-07T01:39:16.365Z,7.80
2019-06-07T01:41:45.177Z,8.80
2019-06-07T01:44:18.523Z,9.80
2019-06-07T01:46:46.269Z,7.70
2019-06-07T01:49:15.277Z,7.97
2019-06-07T01:51:45.959Z,8.23
2019-06-07T01:54:49.660Z,7.77
2019-06-07T01:56:44.660Z,8.50
2019-06-07T01:59:13.320Z,9.03
2019-06-07T02:01:42.329Z,7.60
2019-06-07T02:04:11.115Z,9.63
2019-06-07T02:06:39.858Z,8.67
2019-06-07T02:09:09.112Z,8.93
2019-06-07T02:11:37.721Z,8.40
2019-06-07T02:14:06.637Z,8.77
2019-06-07T02:16:35.501Z,8.90
2019-06-07T02:19:05.972Z,9.20
2019-06-07T02:21:34.800Z,9.17
2019-06-07T02:24:03.507Z,8.70
2019-06-07T02:26:32.657Z,8.90
2019-06-07T02:29:01.746Z,7.47
2019-06-07T02:31:38.293Z,5.87
2019-06-07T02:34:00.747Z,6.57
2019-06-07T02:36:39.098Z,5.53
2019-06-07T02:39:01.309Z,6.47
2019-06-07T02:41:35.553Z,6.80
2019-06-07T02:44:00.266Z,6.97
2019-06-07T02:46:40.088Z,6.97
2019-06-07T02:48:59.376Z,6.70
2019-06-07T02:51:33.671Z,5.43
2019-06-07T02:54:01.101Z,5.53
2019-06-07T02:56:52.507Z,4.87
2019-06-07T02:59:00.119Z,5.97
2019-06-07T03:01:32.436Z,5.63
2019-06-07T03:04:01.769Z,5.87
2019-06-07T03:06:36.963Z,6.00
2019-06-07T03:09:03.215Z,5.70
2019-06-07T03:11:36.061Z,6.17
2019-06-07T03:14:04.688Z,4.93
2019-06-07T03:16:37.276Z,4.70
2019-06-07T03:19:10.041Z,5.27
2019-06-07T03:21:41.756Z,4.33
2019-06-07T03:24:12.452Z,4.40
2019-06-07T03:29:12.628Z,4.27
2019-06-07T03:31:47.091Z,3.93
2019-06-07T03:34:11.581Z,3.90
2019-06-07T03:36:40.418Z,4.20
2019-06-07T03:39:09.207Z,4.20
2019-06-07T03:41:49.851Z,4.00
2019-06-07T03:44:08.068Z,3.90
2019-06-07T03:46:40.573Z,4.17
2019-06-07T03:49:07.011Z,3.80
2019-06-07T03:51:39.325Z,4.47
2019-06-07T03:54:06.190Z,4.40
2019-06-07T03:56:36.048Z,4.60
2019-06-07T03:59:05.488Z,4.80
2019-06-07T04:01:34.814Z,4.87
2019-06-07T04:04:04.584Z,4.50
2019-06-07T04:06:36.185Z,4.43
2019-06-07T04:09:04.963Z,4.23
2019-06-07T04:11:35.064Z,4.60
2019-06-07T04:14:05.420Z,4.47
2019-06-07T04:16:44.253Z,4.30
2019-06-07T04:19:10.514Z,4.53
2019-06-07T04:21:42.488Z,4.17
2019-06-07T04:24:09.520Z,3.80
2019-06-07T04:26:43.269Z,4.27
2019-06-07T04:29:33.330Z,4.00
2019-06-07T04:31:44.185Z,4.30
2019-06-07T04:34:12.810Z,5.40
2019-06-07T04:36:56.454Z,5.63
2019-06-07T04:39:12.643Z,4.80
2019-06-07T04:41:43.441Z,5.20
2019-06-07T04:44:14.160Z,4.80
2019-06-07T04:46:45.287Z,4.43
2019-06-07T04:49:17.194Z,4.37
2019-06-07T04:51:46.915Z,4.97
2019-06-07T04:54:15.722Z,4.33
2019-06-07T04:56:44.897Z,4.67
2019-06-07T04:59:53.311Z,4.60
2019-06-07T05:01:44.302Z,4.80
2019-06-07T05:04:14.897Z,4.72
2019-06-07T05:06:43.594Z,4.17
2019-06-07T05:09:13.770Z,4.87
2019-06-07T05:11:44.807Z,5.00
2019-06-07T05:14:13.046Z,4.55
2019-06-07T05:16:44.346Z,4.60
2019-06-07T05:19:12.018Z,4.25
2019-06-07T05:22:02.021Z,4.50
2019-06-07T05:24:11.273Z,4.60
2019-06-07T05:26:42.941Z,4.12
2019-06-07T05:29:12.186Z,3.50
2019-06-07T05:31:45.867Z,4.03
2019-06-07T05:34:14.375Z,4.35
2019-06-07T05:36:45.046Z,4.87
2019-06-07T05:39:13.938Z,5.12
2019-06-07T05:41:44.587Z,4.78
2019-06-07T05:44:15.091Z,5.40
2019-06-07T05:46:47.037Z,4.90
2019-06-07T05:49:14.764Z,4.97
2019-06-07T05:51:45.050Z,5.75
2019-06-07T05:54:15.393Z,5.72
2019-06-07T05:56:45.378Z,6.70
2019-06-07T05:59:14.102Z,6.37
2019-06-07T06:01:54.563Z,6.55
2019-06-07T06:04:15.950Z,6.05
2019-06-07T06:06:47.065Z,6.53
2019-06-07T06:09:15.059Z,7.08
2019-06-07T06:11:58.484Z,6.70
2019-06-07T06:14:14.459Z,6.60
2019-06-07T06:16:49.876Z,7.92
2019-06-07T06:19:21.091Z,7.22
2019-06-07T06:21:50.087Z,6.87
2019-06-07T06:24:19.097Z,7.50
2019-06-07T06:26:54.325Z,7.45
2019-06-07T06:29:19.902Z,7.87
2019-06-07T06:32:35.493Z,8.60
2019-06-07T06:34:19.227Z,8.45
2019-06-07T06:36:50.291Z,8.35
2019-06-07T06:39:21.589Z,9.03
2019-06-07T06:42:01.656Z,8.93
2019-06-07T06:44:23.387Z,8.83
2019-06-07T06:46:58.182Z,9.90
2019-06-07T06:49:26.859Z,8.43
2019-06-07T06:51:56.648Z,8.75
2019-06-07T06:54:39.905Z,9.70
2019-06-07T06:57:17.567Z,10.30
2019-06-07T06:59:39.251Z,10.38
2019-06-07T07:02:02.742Z,9.80
2019-06-07T07:04:33.504Z,9.10
2019-06-07T07:07:02.717Z,10.00
2019-06-07T07:09:32.347Z,9.45
2019-06-07T07:12:12.170Z,10.70
2019-06-07T07:14:34.616Z,10.50
2019-06-07T07:17:03.307Z,11.45
2019-06-07T07:19:35.094Z,12.15
2019-06-07T07:22:04.093Z,10.50
2019-06-07T07:24:32.820Z,11.10
2019-06-07T07:27:01.443Z,10.15
2019-06-07T07:29:30.164Z,10.88
2019-06-07T07:31:58.907Z,9.90
2019-06-07T07:34:35.495Z,11.22
2019-06-07T07:36:59.784Z,12.40
2019-06-07T07:39:28.626Z,10.43
2019-06-07T07:42:20.101Z,9.70
2019-06-07T07:44:33.450Z,11.05
2019-06-07T07:47:06.727Z,10.82
2019-06-07T07:49:35.744Z,10.50
2019-06-07T07:52:04.869Z,10.30
2019-06-07T07:54:33.586Z,11.08
2019-06-07T07:57:02.231Z,11.75
2019-06-07T07:59:41.726Z,11.15
2019-06-07T08:02:06.789Z,11.28
2019-06-07T08:05:12.802Z,11.73
2019-06-07T08:07:06.155Z,10.80
2019-06-07T08:09:34.835Z,11.45
2019-06-07T08:12:03.602Z,10.53
2019-06-07T08:14:32.322Z,10.93
2019-06-07T08:17:02.492Z,10.23
2019-06-07T08:19:31.168Z,10.05
2019-06-07T08:22:01.786Z,9.18
2019-06-07T08:24:30.270Z,9.43
2019-06-07T08:27:24.238Z,8.55
2019-06-07T08:29:44.430Z,9.30
2019-06-07T08:32:00.979Z,9.45
2019-06-07T08:34:29.764Z,9.33
2019-06-07T08:37:01.759Z,8.35
2019-06-07T08:39:28.691Z,8.48
2019-06-07T08:42:15.328Z,8.93
2019-06-07T08:44:34.794Z,9.18
2019-06-07T08:47:19.251Z,8.45
2019-06-07T08:49:34.586Z,8.60
2019-06-07T08:52:11.250Z,7.25
2019-06-07T08:54:33.788Z,7.33
2019-06-07T08:57:20.071Z,7.58
2019-06-07T08:59:34.920Z,8.28
2019-06-07T09:02:20.712Z,8.20
2019-06-07T09:04:33.960Z,7.78
2019-06-07T09:07:18.394Z,7.45
2019-06-07T09:09:35.822Z,7.10
2019-06-07T09:12:10.194Z,7.05
2019-06-07T09:14:35.440Z,7.25
2019-06-07T09:17:08.763Z,6.87
2019-06-07T09:19:34.637Z,6.65
2019-06-07T09:22:10.831Z,6.87
2019-06-07T09:24:36.277Z,7.30
2019-06-07T09:27:07.784Z,6.85
2019-06-07T09:29:39.321Z,6.67
2019-06-07T09:32:14.631Z,6.83
2019-06-07T09:34:39.392Z,6.80
2019-06-07T09:37:41.495Z,7.00
2019-06-07T09:39:42.852Z,6.55
2019-06-07T09:42:12.802Z,7.65
2019-06-07T09:44:41.623Z,6.83
2019-06-07T09:47:29.846Z,6.60
2019-06-07T09:49:40.854Z,6.40
2019-06-07T09:52:11.267Z,6.37
2019-06-07T09:55:05.801Z,6.55
2019-06-07T09:57:17.157Z,5.55
2019-06-07T09:59:45.058Z,4.90
2019-06-07T10:02:13.997Z,5.55
2019-06-07T10:04:44.937Z,4.90
2019-06-07T10:07:30.749Z,5.28
2019-06-07T10:12:22.337Z,5.42
2019-06-07T10:14:50.983Z,5.47
2019-06-07T10:17:19.923Z,6.20
2019-06-07T10:19:51.389Z,6.92
2019-06-07T10:22:21.838Z,5.97
2019-06-07T10:24:51.166Z,6.22
2019-06-07T10:27:22.681Z,49.30
2019-06-07T10:29:51.869Z,9.63
2019-06-07T10:32:21.167Z,6.17
2019-06-07T10:34:49.872Z,19.57
2019-06-07T10:37:18.651Z,4.90
2019-06-07T10:39:53.299Z,4.87
2019-06-07T10:42:28.749Z,4.78
2019-06-07T10:44:57.403Z,4.97
2019-06-07T10:47:26.233Z,3.90
2019-06-07T10:49:55.207Z,4.42
2019-06-07T10:52:23.944Z,4.22
2019-06-07T10:54:55.936Z,3.55
2019-06-07T10:57:27.489Z,3.50
2019-06-07T11:00:14.077Z,4.53
2019-06-07T11:02:36.125Z,4.40
2019-06-07T11:05:08.173Z,3.77
2019-06-07T11:07:38.768Z,4.53
2019-06-07T11:10:16.677Z,4.03
2019-06-07T11:12:41.466Z,4.75
2019-06-07T11:15:11.104Z,4.87
2019-06-07T11:17:39.958Z,4.70
2019-06-07T11:20:12.411Z,4.50
2019-06-07T11:22:41.131Z,4.92
2019-06-07T11:25:11.119Z,4.85
2019-06-07T11:27:41.403Z,5.45
2019-06-07T11:30:14.741Z,4.12
2019-06-07T11:32:43.470Z,4.95
2019-06-07T11:35:14.022Z,4.53
2019-06-07T11:37:43.247Z,5.00
2019-06-07T11:40:35.489Z,4.78
2019-06-07T11:42:44.869Z,4.83
2019-06-07T11:45:15.442Z,4.72
2019-06-07T11:47:44.466Z,5.35
2019-06-07T11:50:13.838Z,4.97
2019-06-07T11:52:46.417Z,6.20
2019-06-07T11:55:16.954Z,6.00
2019-06-07T11:57:48.707Z,7.12
2019-06-07T12:00:20.640Z,5.60
2019-06-07T12:02:55.201Z,5.78
2019-06-07T12:05:23.949Z,6.17
2019-06-07T12:07:56.996Z,6.70
2019-06-07T12:10:24.598Z,6.87
2019-06-07T12:12:57.684Z,6.33
2019-06-07T12:15:29.693Z,6.22
2019-06-07T12:17:58.456Z,6.00
2019-06-07T12:20:30.116Z,6.22
2019-06-07T12:22:59.268Z,7.47
2019-06-07T12:25:31.784Z,6.65
2019-06-07T12:28:02.984Z,6.95
2019-06-07T12:30:31.692Z,7.20
2019-06-07T12:33:07.657Z,7.72
2019-06-07T12:35:39.131Z,6.97
2019-06-07T12:38:07.918Z,6.30
2019-06-07T12:40:38.498Z,5.33
2019-06-07T12:43:06.982Z,6.90
2019-06-07T12:45:45.015Z,5.67
2019-06-07T12:48:09.241Z,6.78
2019-06-07T12:50:42.902Z,6.10
2019-06-07T12:53:11.295Z,6.95
2019-06-07T12:55:46.647Z,6.78
2019-06-07T12:58:16.353Z,7.50
2019-06-07T13:00:47.709Z,7.40
2019-06-07T13:03:22.561Z,6.17
2019-06-07T13:05:51.638Z,6.95
2019-06-07T13:08:21.937Z,7.12
2019-06-07T13:11:13.654Z,8.08
2019-06-07T13:13:28.834Z,7.53
2019-06-07T13:15:59.171Z,6.70
2019-06-07T13:18:28.578Z,7.58
2019-06-07T13:20:59.672Z,6.03
2019-06-07T13:23:28.937Z,5.85
2019-06-07T13:25:59.086Z,6.25
2019-06-07T13:28:28.943Z,5.45
2019-06-07T13:30:58.028Z,7.10
2019-06-07T13:33:33.912Z,6.70
2019-06-07T13:35:57.205Z,5.95
2019-06-07T13:38:26.494Z,6.85
2019-06-07T13:40:56.404Z,6.10
2019-06-07T13:43:25.797Z,5.30
2019-06-07T13:45:58.856Z,5.62
2019-06-07T13:48:27.966Z,4.90
2019-06-07T13:51:00.024Z,5.22
2019-06-07T13:53:29.132Z,5.62
2019-06-07T13:56:05.224Z,6.33
2019-06-07T13:58:34.356Z,5.80
2019-06-07T14:01:03.187Z,5.72
2019-06-07T14:03:33.961Z,5.40
2019-06-07T14:06:04.370Z,5.85
2019-06-07T14:08:34.442Z,6.08
2019-06-07T14:11:09.332Z,5.15
2019-06-07T14:13:42.695Z,5.90
2019-06-07T14:16:11.381Z,5.95
2019-06-07T14:18:43.210Z,5.75
2019-06-07T14:21:11.880Z,5.33
2019-06-07T14:23:49.089Z,6.30
2019-06-07T14:26:17.838Z,5.35
2019-06-07T14:28:54.028Z,4.85
2019-06-07T14:31:24.549Z,5.33
2019-06-07T14:33:54.263Z,4.87
2019-06-07T14:36:24.885Z,5.05
2019-06-07T14:38:53.912Z,5.67
2019-06-07T14:41:27.085Z,5.65
2019-06-07T14:43:59.768Z,5.92
2019-06-07T14:46:32.120Z,6.05
2019-06-07T14:49:02.506Z,6.25
2019-06-07T14:51:33.256Z,6.15
2019-06-07T14:54:01.834Z,5.72
2019-06-07T14:56:31.375Z,6.78
2019-06-07T14:59:00.256Z,6.47
2019-06-07T15:01:30.567Z,6.17
2019-06-07T15:04:01.137Z,6.95
2019-06-07T15:06:32.682Z,5.53
2019-06-07T15:09:01.593Z,7.20
2019-06-07T15:11:32.986Z,6.45
2019-06-07T15:14:03.783Z,6.58
2019-06-07T15:16:35.780Z,6.08
2019-06-07T15:19:07.468Z,6.50
2019-06-07T15:21:38.861Z,6.03
2019-06-07T15:24:08.120Z,6.50
2019-06-07T15:26:38.672Z,6.35
2019-06-07T15:29:08.085Z,6.58
2019-06-07T15:31:39.671Z,6.50
2019-06-07T15:34:08.188Z,6.70
2019-06-07T15:36:38.512Z,7.85
2019-06-07T15:39:07.824Z,6.70
2019-06-07T15:41:37.380Z,6.53
2019-06-07T15:44:09.722Z,6.40
2019-06-07T15:46:43.859Z,5.92
2019-06-07T15:49:15.370Z,5.55
2019-06-07T15:51:52.465Z,5.50
2019-06-07T15:54:21.342Z,6.47
2019-06-07T15:56:50.092Z,6.10
2019-06-07T15:59:18.930Z,6.30
2019-06-07T16:01:47.704Z,6.28
2019-06-07T16:04:16.281Z,7.75
2019-06-07T16:06:45.406Z,7.65
2019-06-07T16:09:16.943Z,6.75
2019-06-07T16:11:45.501Z,6.97
2019-06-07T16:14:14.229Z,7.67
2019-06-07T16:16:44.458Z,7.37
2019-06-07T16:19:14.697Z,7.10
2019-06-07T16:21:43.633Z,7.35
2019-06-07T16:24:12.461Z,7.03
2019-06-07T16:26:42.344Z,6.20
2019-06-07T16:29:11.156Z,6.22
2019-06-07T16:31:41.383Z,7.17
2019-06-07T16:34:10.126Z,6.67
2019-06-07T16:36:40.413Z,6.30
2019-06-07T16:39:11.824Z,6.97
2019-06-07T16:41:40.623Z,6.58
2019-06-07T16:44:09.768Z,7.55
2019-06-07T16:46:38.705Z,6.78
2019-06-07T16:49:07.541Z,7.70
2019-06-07T16:51:36.983Z,7.30
2019-06-07T16:54:05.797Z,6.95
2019-06-07T16:56:34.577Z,6.90
2019-06-07T16:59:04.395Z,7.50
2019-06-07T17:01:33.376Z,7.15
2019-06-07T17:04:12.504Z,6.87
2019-06-07T17:06:43.773Z,6.58
2019-06-07T17:09:15.327Z,6.33
2019-06-07T17:11:44.346Z,6.90
2019-06-07T17:14:17.183Z,7.83
2019-06-07T17:16:46.523Z,7.62
2019-06-07T17:19:16.156Z,6.92
2019-06-07T17:21:49.627Z,8.15
2019-06-07T17:24:18.374Z,7.70
2019-06-07T17:26:49.782Z,7.62
2019-06-07T17:29:18.822Z,7.78
2019-06-07T17:31:48.218Z,8.73
2019-06-07T17:34:22.768Z,8.08
2019-06-07T17:36:51.841Z,8.38
2019-06-07T17:39:21.677Z,8.73
2019-06-07T17:42:00.050Z,8.00
2019-06-07T17:44:24.917Z,8.75
2019-06-07T17:46:53.812Z,8.65
2019-06-07T17:49:22.391Z,8.30
2019-06-07T17:51:52.279Z,9.05
2019-06-07T17:54:24.084Z,8.55
2019-06-07T17:56:55.366Z,9.08
2019-06-07T17:59:24.469Z,9.13
2019-06-07T18:02:13.551Z,8.93
2019-06-07T18:04:24.493Z,8.85
2019-06-07T18:06:57.916Z,9.80
2019-06-07T18:09:27.193Z,9.13
2019-06-07T18:11:59.183Z,9.30
2019-06-07T18:14:28.156Z,9.58
2019-06-07T18:17:04.856Z,10.28
2019-06-07T18:19:33.625Z,10.50
2019-06-07T18:22:05.274Z,10.30
2019-06-07T18:24:36.306Z,10.38
2019-06-07T18:27:10.213Z,10.20
2019-06-07T18:29:39.091Z,10.88
2019-06-07T18:32:13.487Z,10.68
2019-06-07T18:34:41.824Z,10.72
2019-06-07T18:37:11.278Z,10.65
2019-06-07T18:39:44.439Z,11.63
2019-06-07T18:42:17.684Z,11.63
2019-06-07T18:44:53.180Z,10.85
2019-06-07T18:47:23.634Z,11.22
2019-06-07T18:49:57.707Z,11.25
2019-06-07T18:52:28.720Z,11.85
2019-06-07T18:54:57.593Z,12.10
2019-06-07T18:57:30.655Z,11.50
2019-06-07T19:00:00.342Z,11.93
2019-06-07T19:02:32.827Z,12.40
2019-06-07T19:05:01.758Z,12.35
2019-06-07T19:07:32.089Z,12.20
2019-06-07T19:10:03.721Z,13.98
2019-06-07T19:12:33.808Z,12.53
2019-06-07T19:15:02.602Z,14.05
2019-06-07T19:17:31.586Z,15.45
2019-06-07T19:20:02.591Z,15.08
2019-06-07T19:22:31.870Z,16.37
2019-06-07T19:25:00.666Z,17.75
2019-06-07T19:27:32.824Z,16.57
2019-06-07T19:30:09.078Z,10.55
2019-06-07T19:32:45.698Z,7.92
2019-06-07T19:35:20.942Z,5.08
2019-06-07T19:37:49.754Z,4.50
2019-06-07T19:40:20.609Z,4.40
2019-06-07T19:42:49.373Z,5.15
2019-06-07T19:45:30.145Z,5.53
2019-06-07T19:47:52.854Z,5.70
2019-06-07T19:50:21.905Z,6.25
2019-06-07T19:52:59.169Z,6.60
2019-06-07T19:55:29.631Z,4.67
2019-06-07T19:57:59.565Z,4.20
2019-06-07T20:00:29.846Z,4.30
2019-06-07T20:03:02.101Z,4.00
2019-06-07T20:05:34.406Z,4.35
2019-06-07T20:08:11.429Z,4.30
2019-06-07T20:10:41.249Z,3.87
2019-06-07T20:13:11.448Z,3.90
2019-06-07T20:15:41.794Z,2.58
2019-06-07T20:18:11.690Z,2.60
2019-06-07T20:20:44.420Z,2.62
2019-06-07T20:23:19.824Z,2.20
2019-06-07T20:25:51.329Z,2.42
2019-06-07T20:28:21.822Z,2.42
2019-06-07T20:30:52.266Z,2.72
2019-06-07T20:33:24.165Z,2.70
2019-06-07T20:35:58.617Z,2.72
2019-06-07T20:38:28.964Z,2.47
2019-06-07T20:40:58.991Z,3.47
2019-06-07T20:43:29.515Z,2.85
2019-06-07T20:46:03.455Z,2.80
2019-06-07T20:48:38.857Z,2.95
2019-06-07T20:51:10.660Z,2.85
2019-06-07T20:53:41.051Z,2.92
2019-06-07T20:56:13.451Z,2.50
2019-06-07T20:58:42.108Z,2.05
2019-06-07T21:01:10.831Z,1.70
2019-06-07T21:03:40.717Z,2.10
2019-06-07T21:06:10.769Z,1.60
2019-06-07T21:08:39.486Z,1.75
2019-06-07T21:11:08.183Z,1.10
2019-06-07T21:13:37.175Z,1.10
2019-06-07T21:16:10.272Z,1.12
2019-06-07T21:18:40.266Z,1.47
2019-06-07T21:21:16.201Z,1.10
2019-06-07T21:24:00.881Z,1.10
2019-06-07T21:26:33.633Z,0.98
2019-06-07T21:29:07.084Z,0.98
2019-06-07T21:31:38.052Z,0.90
2019-06-07T21:34:11.009Z,1.10
2019-06-07T21:36:46.189Z,1.00
2019-06-07T21:39:20.793Z,0.80
2019-06-07T21:42:00.023Z,1.17
2019-06-07T21:44:26.332Z,0.93
2019-06-07T21:46:58.035Z,0.80
2019-06-07T21:49:28.392Z,0.85
2019-06-07T21:51:58.645Z,1.03
2019-06-07T21:54:27.642Z,1.00
2019-06-07T21:56:57.422Z,0.82
2019-06-07T21:59:28.749Z,0.97
2019-06-07T22:02:00.209Z,0.98
2019-06-07T22:04:30.786Z,0.68
2019-06-07T22:06:59.231Z,0.80
2019-06-07T22:09:28.826Z,1.00
2019-06-07T22:12:00.389Z,0.63
2019-06-07T22:14:29.205Z,0.70
2019-06-07T22:17:10.286Z,0.60
2019-06-07T22:19:42.118Z,0.60
2019-06-07T22:22:11.053Z,0.70
2019-06-07T22:24:40.083Z,0.87
2019-06-07T22:27:09.174Z,0.80
2019-06-07T22:29:38.897Z,1.00
2019-06-07T22:32:08.783Z,0.77
2019-06-07T22:34:41.901Z,0.70
2019-06-07T22:37:11.639Z,0.60
2019-06-07T22:39:42.522Z,0.73
2019-06-07T22:42:11.995Z,0.77
2019-06-07T22:44:51.657Z,0.60
2019-06-07T22:47:23.643Z,0.80
2019-06-07T22:49:52.370Z,0.70
2019-06-07T22:52:26.098Z,0.73
2019-06-07T22:54:57.027Z,0.70
2019-06-07T22:57:27.761Z,0.40
2019-06-07T22:59:58.005Z,0.60
2019-06-07T23:02:26.774Z,0.70
2019-06-07T23:04:55.593Z,0.62
2019-06-07T23:07:25.600Z,0.65
2019-06-07T23:09:57.603Z,0.80
2019-06-07T23:12:26.239Z,0.70
2019-06-07T23:14:54.840Z,0.70
2019-06-07T23:17:23.708Z,0.73
2019-06-07T23:19:52.386Z,0.53
2019-06-07T23:22:21.072Z,0.50
2019-06-07T23:24:49.636Z,0.65
2019-06-07T23:27:18.462Z,0.55
2019-06-07T23:29:47.322Z,0.83
2019-06-07T23:32:17.196Z,0.63
2019-06-07T23:34:45.904Z,1.23
2019-06-07T23:37:17.097Z,0.73
2019-06-07T23:39:46.672Z,0.70
2019-06-07T23:42:15.526Z,0.83
2019-06-07T23:44:44.160Z,0.73
2019-06-07T23:47:15.421Z,0.60
2019-06-07T23:49:43.570Z,0.70
2019-06-07T23:52:13.779Z,0.70
2019-06-07T23:54:44.272Z,0.60
2019-06-07T23:57:16.017Z,0.80
2019-06-07T23:59:44.710Z,0.70
